Terminal Aerodrome Forecast
Issued by NWS

Home | Current Version | Previous Version | Text Only | Print | Product List | Glossary Off
Versions: 1 2 3 4 5 6 7 8 9 10 11 12 13 14 15 16 17 18 19 20 21

000
FTUS42 KMHX 170400 AAA
TAFOAJ
TAF AMD
KOAJ 170412Z 1704/1724 00000KT P6SM SCT110
      TEMPO 1704/1706 VRB15G25KT 2SM +TSRA BKN035CB OVC050
     FM170600 02003KT P6SM SCT040 OVC110
     FM170800 06003KT 4SM BR BKN020
     FM171300 10006KT P6SM SCT020
     FM171800 09008KT P6SM BKN035
      AMD LTD TO CLD VIS AND WIND=

USA.gov is the U.S. government's official web portal to all federal, state and local government web resources and services.